Time;durP1;ratioP1;P1;durP2;ratioP2;P2;SDS_P1;SDS_P2;PMS_P1;PMS_P2;Temp;Humidity;BMP_temperature;BMP_pressure;BME280_temperature;BME280_humidity;BME280_pressure;Samples;Min_cycle;Max_cycle;Signal;HPM_P1;HPM_P2
2022/07/20 00:01:33;;;;;;;11.00;3.92;;;19.00;68.80;;;;;;4991482;28;20176;-75
2022/07/20 00:04:03;;;;;;;10.45;3.92;;;19.00;69.10;;;;;;4990625;28;20536;-75
2022/07/20 00:06:29;;;;;;;10.15;3.75;;;19.00;69.40;;;;;;4991175;28;20589;-75
2022/07/20 00:11:38;;;;;;;7.53;3.88;;;18.90;69.90;;;;;;4991124;28;20681;-75
2022/07/20 00:14:23;;;;;;;8.93;4.10;;;18.90;70.50;;;;;;4991003;28;20181;-75
2022/07/20 00:16:48;;;;;;;8.20;3.80;;;18.70;71.20;;;;;;4989921;28;20218;-75
2022/07/20 00:19:14;;;;;;;8.10;4.20;;;18.60;72.00;;;;;;4989735;28;20200;-75
2022/07/20 00:21:40;;;;;;;6.95;3.70;;;18.50;73.80;;;;;;4991238;28;20258;-75
2022/07/20 00:24:06;;;;;;;6.75;3.90;;;18.40;73.70;;;;;;4990982;28;20202;-75
2022/07/20 00:26:32;;;;;;;7.93;3.78;;;18.30;74.00;;;;;;4989703;28;20212;-75
2022/07/20 00:28:57;;;;;;;5.78;3.33;;;18.30;74.70;;;;;;4989597;28;20188;-75
2022/07/20 00:31:23;;;;;;;8.65;3.97;;;18.20;74.50;;;;;;4989639;28;20177;-75
2022/07/20 00:33:49;;;;;;;6.63;4.13;;;18.20;74.80;;;;;;4989618;28;20180;-75
2022/07/20 00:36:17;;;;;;;8.35;3.90;;;18.20;74.50;;;;;;4989926;28;20196;-75
2022/07/20 00:38:42;;;;;;;8.02;3.90;;;18.10;74.50;;;;;;4990074;28;20566;-75
2022/07/20 00:41:08;;;;;;;8.18;4.00;;;18.10;74.90;;;;;;4989552;28;20271;-75
2022/07/20 00:43:54;;;;;;;5.53;3.75;;;18.10;75.40;;;;;;4989513;28;20202;-75
2022/07/20 00:46:20;;;;;;;13.02;4.18;;;18.20;75.60;;;;;;4989453;28;20630;-75
2022/07/20 00:48:46;;;;;;;7.38;3.90;;;18.10;75.50;;;;;;4990336;28;20276;-75
2022/07/20 00:51:12;;;;;;;8.45;3.80;;;18.10;75.50;;;;;;4990405;28;20275;-75
2022/07/20 00:53:38;;;;;;;6.45;3.90;;;18.10;75.20;;;;;;4989582;28;20215;-75
2022/07/20 00:56:04;;;;;;;10.95;3.90;;;18.20;75.20;;;;;;4992857;28;20204;-75
2022/07/20 00:58:30;;;;;;;7.18;3.97;;;18.20;75.30;;;;;;4993004;28;20234;-75
2022/07/20 01:00:55;;;;;;;7.55;3.95;;;18.20;75.50;;;;;;4992748;28;20173;-75
2022/07/20 01:03:21;;;;;;;7.38;4.00;;;18.20;75.80;;;;;;4993496;28;20219;-75
2022/07/20 01:05:46;;;;;;;7.15;4.00;;;18.10;76.10;;;;;;4992617;28;20245;-75
2022/07/20 01:08:12;;;;;;;5.32;4.00;;;18.10;76.40;;;;;;4992554;28;20180;-75
2022/07/20 01:10:38;;;;;;;8.15;4.05;;;18.10;76.80;;;;;;4992890;28;20176;-75
2022/07/20 01:13:03;;;;;;;9.98;3.78;;;18.00;77.20;;;;;;4992839;28;20184;-75
2022/07/20 01:15:29;;;;;;;11.88;4.05;;;18.10;77.10;;;;;;4992445;28;20210;-75
2022/07/20 01:17:54;;;;;;;8.10;4.20;;;18.00;77.20;;;;;;4993847;28;20260;-75
2022/07/20 01:20:24;;;;;;;7.63;3.92;;;18.00;77.60;;;;;;4992515;28;20619;-75
2022/07/20 01:22:50;;;;;;;7.97;4.20;;;18.00;77.20;;;;;;4992384;28;20188;-75
2022/07/20 01:25:16;;;;;;;9.05;4.15;;;18.00;77.30;;;;;;4992440;28;20647;-75
2022/07/20 01:27:42;;;;;;;7.85;4.13;;;18.00;77.60;;;;;;4993274;28;20200;-75
2022/07/20 01:30:08;;;;;;;7.68;4.05;;;18.00;77.70;;;;;;4992631;28;20207;-75
2022/07/20 01:32:34;;;;;;;6.30;4.28;;;17.90;77.70;;;;;;4992240;28;20184;-75
2022/07/20 01:35:00;;;;;;;7.68;4.15;;;18.00;77.40;;;;;;4992066;28;20211;-75
2022/07/20 01:37:58;;;;;;;6.28;4.13;;;18.10;77.30;;;;;;4992244;28;20215;-75
2022/07/20 01:40:24;;;;;;;7.28;4.28;;;17.90;77.60;;;;;;4992075;28;20298;-75
2022/07/20 01:42:50;;;;;;;8.27;4.10;;;17.80;77.90;;;;;;4992891;28;20274;-75
2022/07/20 01:45:16;;;;;;;13.38;4.10;;;17.80;78.10;;;;;;4992072;28;20235;-75
2022/07/20 01:47:41;;;;;;;9.27;4.32;;;17.80;78.60;;;;;;4992036;28;20181;-75
2022/07/20 01:50:07;;;;;;;12.60;4.43;;;17.60;79.20;;;;;;4992168;28;20230;-75
2022/07/20 01:52:34;;;;;;;9.60;4.47;;;17.60;79.30;;;;;;4993064;28;20621;-75
2022/07/20 01:54:59;;;;;;;6.18;4.10;;;17.60;79.70;;;;;;4992355;28;20257;-75
2022/07/20 01:57:25;;;;;;;8.30;4.40;;;17.60;79.90;;;;;;4991934;28;20180;-75
2022/07/20 01:59:50;;;;;;;7.65;4.28;;;17.60;80.10;;;;;;4992316;28;20300;-75
2022/07/20 02:02:16;;;;;;;7.78;4.28;;;17.50;80.10;;;;;;4991810;28;20211;-75
2022/07/20 02:04:41;;;;;;;10.57;4.70;;;17.60;80.00;;;;;;4991671;28;20180;-75
2022/07/20 02:07:07;;;;;;;6.95;4.05;;;17.60;80.10;;;;;;4991072;28;20218;-75
2022/07/20 02:09:32;;;;;;;7.82;4.20;;;17.50;80.30;;;;;;4991681;28;20173;-75
2022/07/20 02:11:58;;;;;;;9.25;4.32;;;17.50;80.90;;;;;;4992469;28;20524;-75
2022/07/20 02:14:25;;;;;;;8.63;4.22;;;17.50;81.50;;;;;;4991469;28;20242;-75
2022/07/20 02:16:50;;;;;;;9.70;4.15;;;17.50;81.50;;;;;;4992327;28;20188;-75
2022/07/20 02:19:16;;;;;;;10.02;4.70;;;17.40;81.70;;;;;;4992877;28;20207;-75
2022/07/20 02:21:42;;;;;;;6.68;3.88;;;17.30;82.60;;;;;;4992498;28;20176;-75
2022/07/20 02:24:08;;;;;;;14.35;4.68;;;17.10;83.20;;;;;;4992635;28;20591;-75
2022/07/20 02:26:33;;;;;;;9.43;4.30;;;17.10;83.80;;;;;;4991689;28;20192;-75
2022/07/20 02:28:59;;;;;;;9.77;4.07;;;17.00;84.30;;;;;;4992476;28;20280;-76
2022/07/20 02:31:24;;;;;;;8.80;4.35;;;17.10;84.30;;;;;;4991426;28;20176;-76
2022/07/20 02:33:51;;;;;;;8.57;4.47;;;17.10;85.20;;;;;;4991278;28;20633;-76
2022/07/20 02:36:17;;;;;;;9.80;4.95;;;17.00;86.20;;;;;;4992675;28;20204;-75
2022/07/20 02:38:43;;;;;;;5.72;4.40;;;16.90;86.90;;;;;;4991155;28;20208;-75
2022/07/20 02:41:10;;;;;;;13.30;4.45;;;16.80;87.90;;;;;;4991210;28;20173;-75
2022/07/20 02:43:35;;;;;;;6.95;4.15;;;16.90;87.70;;;;;;4991206;28;20207;-75
2022/07/20 02:46:01;;;;;;;10.52;3.80;;;16.80;88.40;;;;;;4991355;28;20227;-75
2022/07/20 02:48:27;;;;;;;11.93;4.82;;;16.90;88.30;;;;;;4991142;28;20184;-75
2022/07/20 02:50:52;;;;;;;8.77;4.53;;;16.80;88.70;;;;;;4991321;28;20187;-75
2022/07/20 02:53:18;;;;;;;8.70;4.25;;;16.80;88.60;;;;;;4991366;28;20187;-75
2022/07/20 02:55:44;;;;;;;10.82;4.10;;;16.80;88.80;;;;;;4990920;28;20215;-75
2022/07/20 02:58:11;;;;;;;6.65;4.28;;;16.90;88.90;;;;;;4990860;28;20274;-75
2022/07/20 03:00:38;;;;;;;9.07;4.35;;;16.90;88.60;;;;;;4990875;28;20206;-75
2022/07/20 03:03:04;;;;;;;9.65;4.10;;;16.90;88.70;;;;;;4991152;28;20249;-75
2022/07/20 03:05:30;;;;;;;7.93;4.30;;;16.90;89.10;;;;;;4991136;28;20560;-75
2022/07/20 03:07:55;;;;;;;9.95;4.40;;;16.70;90.20;;;;;;4990756;28;20173;-75
2022/07/20 03:10:21;;;;;;;10.98;4.95;;;16.60;90.40;;;;;;4990988;28;20639;-75
2022/07/20 03:12:47;;;;;;;20.77;4.43;;;16.60;90.80;;;;;;4991038;28;20185;-75
2022/07/20 03:15:13;;;;;;;7.75;4.38;;;16.60;90.90;;;;;;4991911;28;20198;-75
2022/07/20 03:17:48;;;;;;;8.00;4.70;;;16.60;90.90;;;;;;4990533;28;20180;-75
2022/07/20 03:20:18;;;;;;;8.27;4.15;;;16.70;90.80;;;;;;4990496;28;20200;-75
2022/07/20 03:22:44;;;;;;;8.68;4.20;;;16.70;90.90;;;;;;4990591;28;20237;-75
2022/07/20 03:25:10;;;;;;;9.10;4.28;;;16.70;90.60;;;;;;4990712;28;20208;-75
2022/07/20 03:27:37;;;;;;;9.05;4.50;;;16.80;90.70;;;;;;4990579;28;20207;-75
2022/07/20 03:30:07;;;;;;;7.82;4.43;;;16.90;90.70;;;;;;4990485;28;20220;-75
2022/07/20 03:32:33;;;;;;;5.35;4.22;;;16.90;90.90;;;;;;4990942;28;20180;-75
2022/07/20 03:34:59;;;;;;;6.25;3.90;;;16.90;90.90;;;;;;4990553;28;20245;-75
2022/07/20 03:37:25;;;;;;;9.65;4.13;;;16.90;90.90;;;;;;4990612;28;20223;-75
2022/07/20 03:39:51;;;;;;;13.10;4.65;;;17.00;91.00;;;;;;4991018;28;20247;-75
2022/07/20 03:42:16;;;;;;;13.20;4.25;;;17.00;91.10;;;;;;4990277;28;20173;-75
2022/07/20 03:44:42;;;;;;;10.23;4.30;;;17.00;91.00;;;;;;4991062;28;20188;-75
2022/07/20 03:47:08;;;;;;;7.28;4.05;;;17.10;91.10;;;;;;4990999;28;20654;-75
2022/07/20 03:49:33;;;;;;;13.20;4.80;;;17.10;91.10;;;;;;4990226;28;20184;-75
2022/07/20 03:51:59;;;;;;;10.23;3.95;;;17.00;91.30;;;;;;4990212;28;20188;-75
2022/07/20 03:54:24;;;;;;;13.10;4.95;;;16.90;91.90;;;;;;4991568;28;20225;-75
2022/07/20 03:56:50;;;;;;;12.52;4.93;;;16.90;92.10;;;;;;4990098;28;20226;-75
2022/07/20 03:59:16;;;;;;;12.57;4.40;;;16.80;92.30;;;;;;4990104;28;20208;-75
2022/07/20 04:01:42;;;;;;;8.88;4.60;;;16.80;92.40;;;;;;4991455;28;20176;-75
2022/07/20 04:04:08;;;;;;;8.48;4.07;;;16.80;92.30;;;;;;4991217;28;20186;-75
2022/07/20 04:06:33;;;;;;;8.32;4.78;;;16.80;92.30;;;;;;4989934;28;20197;-75
2022/07/20 04:08:59;;;;;;;9.15;4.85;;;16.90;92.40;;;;;;4989987;28;20184;-75
2022/07/20 04:11:24;;;;;;;5.10;4.45;;;16.80;92.40;;;;;;4990176;28;20180;-75
2022/07/20 04:13:51;;;;;;;9.68;4.75;;;16.90;92.60;;;;;;4991179;28;20180;-75
2022/07/20 04:16:19;;;;;;;13.30;4.68;;;16.80;92.80;;;;;;4989724;28;20261;-75
2022/07/20 04:18:45;;;;;;;20.73;5.13;;;16.80;93.00;;;;;;4989653;28;20649;-75
2022/07/20 04:21:11;;;;;;;11.43;5.15;;;16.80;93.20;;;;;;4990943;28;20219;-76
2022/07/20 04:23:36;;;;;;;9.50;4.47;;;16.80;93.30;;;;;;4991522;28;20211;-75
2022/07/20 04:26:05;;;;;;;11.45;4.60;;;16.70;93.50;;;;;;4989927;28;20291;-74
2022/07/20 04:28:31;;;;;;;12.98;4.60;;;16.80;93.60;;;;;;4990889;28;20200;-75
2022/07/20 04:30:57;;;;;;;7.22;4.13;;;16.90;93.30;;;;;;4994362;28;20176;-75
2022/07/20 04:33:22;;;;;;;12.73;4.38;;;17.00;93.20;;;;;;4993118;28;20183;-76
2022/07/20 04:35:48;;;;;;;7.82;4.35;;;17.10;93.00;;;;;;4993865;28;20337;-74
2022/07/20 04:38:13;;;;;;;10.27;4.53;;;17.10;93.10;;;;;;4993635;28;20667;-75
2022/07/20 04:40:40;;;;;;;9.30;4.18;;;17.10;93.40;;;;;;4993411;28;20176;-75
2022/07/20 04:43:06;;;;;;;13.05;4.50;;;17.20;93.30;;;;;;4992967;28;20270;-76
2022/07/20 04:45:31;;;;;;;12.32;4.30;;;17.30;93.10;;;;;;4993468;28;20277;-76
2022/07/20 04:47:57;;;;;;;12.25;4.50;;;17.50;92.90;;;;;;4994382;28;20262;-76
2022/07/20 04:51:04;;;;;;;13.60;4.60;;;17.50;92.90;;;;;;4994587;28;20186;-75
2022/07/20 04:53:29;;;;;;;10.65;4.85;;;17.60;92.70;;;;;;4992793;28;20263;-76
2022/07/20 04:56:05;;;;;;;12.70;4.97;;;17.70;92.30;;;;;;4994000;28;20330;-75
2022/07/20 04:58:31;;;;;;;16.80;4.97;;;17.90;92.40;;;;;;4992670;28;20192;-74
2022/07/20 05:00:57;;;;;;;15.07;5.40;;;18.10;92.20;;;;;;4992861;28;20651;-74
2022/07/20 05:03:23;;;;;;;19.80;5.28;;;18.20;92.20;;;;;;4993740;28;20188;-75
2022/07/20 05:05:49;;;;;;;21.23;5.32;;;18.40;91.90;;;;;;4992981;28;20192;-74
2022/07/20 05:08:15;;;;;;;15.00;5.00;;;18.60;92.50;;;;;;4992741;28;20549;-76
2022/07/20 05:10:40;;;;;;;18.20;5.18;;;18.70;91.90;;;;;;4992570;28;20191;-76
2022/07/20 05:13:06;;;;;;;12.18;4.72;;;18.90;92.00;;;;;;4992454;28;20176;-76
2022/07/20 05:15:32;;;;;;;13.05;5.05;;;19.00;91.90;;;;;;4992680;28;20204;-75
2022/07/20 05:17:57;;;;;;;14.32;5.15;;;19.10;92.00;;;;;;4992735;28;20279;-75
2022/07/20 05:20:23;;;;;;;13.57;4.97;;;19.30;91.00;;;;;;4992262;28;20204;-75
2022/07/20 05:22:48;;;;;;;11.48;4.82;;;19.40;90.90;;;;;;4992541;28;20259;-76
2022/07/20 05:25:21;;;;;;;21.25;5.18;;;19.50;88.90;;;;;;4992266;28;20200;-76
2022/07/20 05:27:47;;;;;;;16.88;5.13;;;19.60;88.50;;;;;;4992132;28;20203;-74
2022/07/20 05:30:13;;;;;;;16.50;5.30;;;19.80;87.30;;;;;;4992601;28;20620;-75
2022/07/20 05:32:39;;;;;;;10.63;4.63;;;19.90;85.90;;;;;;4993404;28;20184;-74
2022/07/20 05:35:08;;;;;;;19.77;5.47;;;20.10;86.00;;;;;;4992891;28;20288;-75
2022/07/20 05:37:34;;;;;;;14.75;4.70;;;20.10;86.40;;;;;;4992233;28;20233;-75
2022/07/20 05:39:59;;;;;;;34.10;5.63;;;20.30;87.80;;;;;;4991452;28;20238;-75
2022/07/20 05:42:25;;;;;;;41.53;6.90;;;20.40;87.70;;;;;;4991806;28;20214;-75
2022/07/20 05:44:50;;;;;;;18.85;5.15;;;20.50;89.20;;;;;;4992286;28;20589;-74
2022/07/20 05:47:17;;;;;;;16.05;5.05;;;20.60;90.10;;;;;;4992602;28;20200;-74
2022/07/20 05:49:45;;;;;;;14.85;5.32;;;20.60;90.10;;;;;;4992359;28;20242;-74
2022/07/20 05:52:11;;;;;;;17.83;5.40;;;20.70;89.40;;;;;;4993457;28;20176;-74
2022/07/20 05:54:36;;;;;;;20.80;5.03;;;20.80;88.50;;;;;;4992197;28;20264;-74
2022/07/20 05:57:02;;;;;;;11.35;5.03;;;20.90;88.00;;;;;;4991883;28;20211;-74
2022/07/20 05:59:28;;;;;;;9.07;4.97;;;21.00;88.50;;;;;;4991839;28;20204;-74
2022/07/20 06:01:53;;;;;;;9.35;4.60;;;21.00;89.90;;;;;;4991818;28;20196;-74
2022/07/20 06:04:19;;;;;;;11.43;4.80;;;21.00;89.90;;;;;;4993273;28;20643;-74
2022/07/20 06:06:44;;;;;;;9.43;4.90;;;21.20;89.60;;;;;;4992091;28;20569;-74
2022/07/20 06:09:10;;;;;;;9.43;4.57;;;21.40;89.10;;;;;;4991776;28;20191;-75
2022/07/20 06:11:36;;;;;;;10.55;4.70;;;21.60;88.00;;;;;;4992862;28;20180;-75
2022/07/20 06:14:01;;;;;;;11.45;4.70;;;21.70;87.60;;;;;;4991701;28;20207;-75
2022/07/20 06:16:27;;;;;;;14.20;4.95;;;21.90;86.20;;;;;;4991520;28;20245;-74
2022/07/20 06:18:53;;;;;;;24.42;5.55;;;22.10;85.80;;;;;;4991481;28;20254;-74
2022/07/20 06:21:19;;;;;;;14.35;4.53;;;22.10;85.50;;;;;;4991872;28;20265;-74
2022/07/20 06:23:44;;;;;;;14.88;4.80;;;22.30;85.20;;;;;;4992701;28;20699;-74
2022/07/20 06:26:10;;;;;;;10.25;4.80;;;22.40;84.50;;;;;;4992592;28;20203;-75
2022/07/20 06:28:36;;;;;;;13.55;4.57;;;22.70;83.00;;;;;;4991224;28;20202;-76
2022/07/20 06:31:05;;;;;;;12.90;4.63;;;22.90;81.70;;;;;;4991713;28;20210;-76
2022/07/20 06:33:31;;;;;;;11.18;4.85;;;23.20;80.80;;;;;;4991626;28;20279;-75
2022/07/20 06:35:56;;;;;;;10.40;4.50;;;23.40;80.10;;;;;;4991311;28;20232;-75
2022/07/20 06:38:22;;;;;;;7.03;4.22;;;23.90;78.20;;;;;;4991196;28;20184;-75
2022/07/20 06:40:47;;;;;;;9.70;4.10;;;24.70;76.40;;;;;;4991356;28;20707;-75
2022/07/20 06:43:13;;;;;;;9.02;4.30;;;25.60;72.80;;;;;;4991106;28;20234;-75
2022/07/20 06:45:38;;;;;;;14.30;4.65;;;26.50;67.90;;;;;;4991381;28;20202;-75
2022/07/20 06:48:04;;;;;;;8.23;4.28;;;27.30;64.80;;;;;;4991135;28;20183;-75
2022/07/20 06:50:48;;;;;;;9.13;4.40;;;27.80;61.10;;;;;;4991008;28;20180;-75
2022/07/20 06:53:14;;;;;;;10.25;4.35;;;28.30;58.50;;;;;;4991655;28;20247;-75
2022/07/20 06:55:40;;;;;;;9.43;3.88;;;28.50;56.50;;;;;;4992114;28;20251;-75
2022/07/20 06:58:05;;;;;;;7.10;3.90;;;28.60;55.60;;;;;;4991832;28;20191;-76
2022/07/20 07:00:37;;;;;;;11.98;4.28;;;28.40;55.60;;;;;;4991162;28;20214;-76
2022/07/20 07:03:03;;;;;;;10.57;4.55;;;28.00;57.00;;;;;;4990956;28;20169;-76
2022/07/20 07:05:29;;;;;;;14.35;4.18;;;27.50;57.20;;;;;;4992307;28;20286;-76
2022/07/20 07:07:54;;;;;;;6.53;3.42;;;27.20;57.30;;;;;;4990906;28;20198;-76
2022/07/20 07:10:20;;;;;;;12.63;3.90;;;26.90;56.70;;;;;;4991066;28;20184;-76
2022/07/20 07:12:55;;;;;;;11.00;3.97;;;26.80;56.60;;;;;;4990806;28;20193;-76
2022/07/20 07:15:30;;;;;;;8.70;3.85;;;26.60;57.70;;;;;;4990660;28;20254;-75
2022/07/20 07:17:56;;;;;;;8.77;3.40;;;26.50;57.80;;;;;;4990808;28;20651;-76
2022/07/20 07:20:21;;;;;;;12.98;4.10;;;26.60;57.60;;;;;;4990787;28;20208;-76
2022/07/20 07:22:47;;;;;;;15.57;3.80;;;26.70;57.70;;;;;;4992011;28;20659;-76
2022/07/20 07:25:13;;;;;;;11.13;3.58;;;26.80;57.20;;;;;;5000298;28;20589;-75
2022/07/20 07:27:38;;;;;;;10.63;3.80;;;26.90;55.90;;;;;;4990557;28;20245;-76
2022/07/20 07:30:40;;;;;;;8.32;3.42;;;27.00;55.90;;;;;;4991670;28;20547;-76
2022/07/20 07:33:07;;;;;;;7.38;3.42;;;27.00;56.10;;;;;;4979313;28;20227;-75
2022/07/20 07:35:33;;;;;;;4.40;3.10;;;27.20;56.00;;;;;;5007872;28;20242;-75
2022/07/20 07:37:58;;;;;;;4.55;3.28;;;27.30;53.90;;;;;;4990722;28;20291;-75
2022/07/20 07:40:24;;;;;;;6.40;3.80;;;27.40;52.70;;;;;;4997002;28;20200;-75
2022/07/20 07:42:49;;;;;;;3.65;3.03;;;27.40;53.40;;;;;;5094019;28;20173;-75
2022/07/20 07:45:15;;;;;;;4.13;3.00;;;27.60;52.80;;;;;;5092842;28;20593;-75
2022/07/20 07:47:42;;;;;;;5.78;3.30;;;27.70;53.30;;;;;;5091628;28;20180;-75
2022/07/20 07:50:08;;;;;;;4.22;3.10;;;27.80;52.50;;;;;;5094255;28;20169;-75
2022/07/20 07:52:33;;;;;;;6.75;2.85;;;27.90;52.80;;;;;;5091639;28;20187;-76
2022/07/20 07:54:59;;;;;;;5.32;3.05;;;28.00;50.90;;;;;;5092347;28;20204;-76
2022/07/20 07:57:24;;;;;;;6.47;2.97;;;28.10;49.20;;;;;;5091951;28;20240;-76
2022/07/20 07:59:50;;;;;;;4.95;2.88;;;28.30;50.80;;;;;;5092644;28;20311;-76
2022/07/20 08:02:15;;;;;;;8.23;3.20;;;28.40;50.80;;;;;;5091619;28;20269;-76
2022/07/20 08:04:41;;;;;;;5.93;2.90;;;28.50;49.10;;;;;;5092623;28;20187;-75
2022/07/20 08:07:07;;;;;;;6.63;2.95;;;28.60;48.80;;;;;;5091412;28;20180;-75
2022/07/20 08:09:32;;;;;;;4.05;3.00;;;28.70;49.40;;;;;;5092514;28;20309;-75
2022/07/20 08:11:58;;;;;;;5.03;3.10;;;28.90;48.00;;;;;;5091886;28;20172;-75
2022/07/20 08:17:46;;;;;;;5.43;3.08;;;29.30;48.20;;;;;;5092935;28;20163;-76
2022/07/20 08:20:27;;;;;;;6.68;3.20;;;29.60;47.00;;;;;;5092379;28;20196;-76
2022/07/20 08:22:53;;;;;;;4.95;2.90;;;29.80;47.00;;;;;;4970858;28;20173;-75
2022/07/20 08:25:19;;;;;;;6.88;3.00;;;29.90;46.40;;;;;;4971760;28;20211;-75
2022/07/20 08:27:45;;;;;;;9.23;3.45;;;30.10;45.30;;;;;;4989409;28;20196;-75
2022/07/20 08:30:12;;;;;;;3.42;3.13;;;30.40;45.50;;;;;;4990928;28;20249;-76
2022/07/20 08:32:37;;;;;;;8.02;3.30;;;30.60;45.00;;;;;;5080974;28;20188;-76
2022/07/20 08:35:04;;;;;;;8.68;3.08;;;30.70;45.10;;;;;;5093337;28;20195;-76
2022/07/20 08:37:29;;;;;;;5.68;3.15;;;30.80;43.30;;;;;;5008039;28;20331;-76
2022/07/20 08:39:55;;;;;;;4.78;3.40;;;30.80;44.20;;;;;;4989566;28;20332;-76
2022/07/20 08:42:51;;;;;;;4.55;3.08;;;30.80;45.00;;;;;;4991491;28;20199;-76
2022/07/20 08:45:17;;;;;;;7.43;3.40;;;30.90;43.80;;;;;;4990117;28;20591;-75
2022/07/20 08:48:04;;;;;;;10.82;3.65;;;31.10;45.20;;;;;;5080192;28;20313;-76
2022/07/20 08:50:31;;;;;;;7.07;3.03;;;31.20;43.90;;;;;;5092944;28;20175;-76
2022/07/20 08:52:57;;;;;;;7.25;3.10;;;31.20;43.40;;;;;;5091250;28;20212;-76
2022/07/20 08:58:46;;;;;;;5.45;2.92;;;31.30;42.20;;;;;;5093068;28;20196;-76
2022/07/20 09:01:23;;;;;;;4.70;2.90;;;31.30;41.30;;;;;;5015002;28;20236;-76
2022/07/20 09:07:10;;;;;;;4.40;3.08;;;31.30;42.10;;;;;;4998269;28;20217;-76
2022/07/20 09:09:36;;;;;;;7.15;3.10;;;31.30;42.20;;;;;;4989321;28;20188;-76
2022/07/20 09:12:01;;;;;;;4.32;3.25;;;31.40;41.80;;;;;;5047614;28;20527;-76
2022/07/20 09:14:47;;;;;;;6.50;3.35;;;31.60;42.80;;;;;;5091648;28;20229;-76
2022/07/20 09:17:18;;;;;;;8.60;3.22;;;31.80;42.30;;;;;;5094754;28;20661;-76
2022/07/20 09:20:07;;;;;;;4.05;3.08;;;31.90;41.50;;;;;;5096067;28;20192;-76
2022/07/20 09:22:43;;;;;;;5.57;3.00;;;31.90;40.30;;;;;;5016880;28;20230;-76
2022/07/20 09:25:15;;;;;;;5.32;3.00;;;31.90;41.20;;;;;;4993617;28;20190;-75
2022/07/20 09:27:42;;;;;;;5.00;2.85;;;31.90;40.40;;;;;;4992856;28;20210;-75
2022/07/20 09:30:31;;;;;;;7.70;3.53;;;31.90;40.20;;;;;;4992339;28;20172;-75
2022/07/20 09:33:03;;;;;;;5.15;3.00;;;31.90;39.90;;;;;;4994469;28;20168;-74
2022/07/20 09:35:34;;;;;;;7.40;3.40;;;31.90;41.30;;;;;;4992307;28;20211;-75
2022/07/20 09:38:06;;;;;;;6.57;2.97;;;32.00;40.70;;;;;;5087140;28;20180;-75
2022/07/20 09:40:56;;;;;;;3.38;2.67;;;32.10;40.50;;;;;;5094836;28;20781;-75
2022/07/20 09:43:27;;;;;;;3.45;2.83;;;32.10;41.20;;;;;;4984560;28;20185;-75
2022/07/20 09:45:56;;;;;;;6.60;3.10;;;32.10;40.00;;;;;;5011647;28;20263;-75
2022/07/20 09:52:02;;;;;;;6.47;3.10;;;32.10;40.90;;;;;;4994160;28;20276;-75
2022/07/20 09:54:28;;;;;;;3.90;2.95;;;32.30;40.00;;;;;;4992807;28;20602;-75
2022/07/20 09:56:55;;;;;;;4.72;3.05;;;32.40;40.80;;;;;;4992592;28;20192;-75
2022/07/20 09:59:46;;;;;;;8.85;3.10;;;32.40;40.00;;;;;;4991889;28;20207;-75
2022/07/20 10:02:12;;;;;;;10.32;3.10;;;32.40;39.80;;;;;;4984200;28;20260;-75
2022/07/20 10:04:37;;;;;;;5.55;3.20;;;32.40;39.20;;;;;;5031230;28;20211;-75
2022/07/20 10:07:18;;;;;;;11.65;3.47;;;32.50;38.30;;;;;;5047844;28;20179;-75
2022/07/20 10:09:43;;;;;;;3.90;2.95;;;32.50;37.80;;;;;;5076183;28;20183;-74
2022/07/20 10:12:09;;;;;;;5.60;2.97;;;32.30;37.30;;;;;;5077770;28;20183;-75
2022/07/20 10:14:35;;;;;;;7.55;3.25;;;32.40;39.00;;;;;;4992402;28;20236;-75
2022/07/20 10:17:01;;;;;;;4.55;3.15;;;32.40;39.20;;;;;;5000837;28;20210;-75
2022/07/20 10:20:07;;;;;;;5.32;3.00;;;32.50;38.00;;;;;;4993628;28;20271;-75
2022/07/20 10:22:44;;;;;;;6.95;3.05;;;32.50;36.70;;;;;;4992486;28;20164;-81
2022/07/20 10:25:16;;;;;;;5.25;3.20;;;32.60;36.30;;;;;;4992733;28;20191;-75
2022/07/20 10:27:42;;;;;;;6.57;3.30;;;32.40;35.60;;;;;;4990793;28;20230;-75
2022/07/20 10:30:17;;;;;;;7.50;3.20;;;32.60;36.20;;;;;;4991407;28;20206;-75
2022/07/20 10:32:56;;;;;;;5.32;3.00;;;32.70;36.30;;;;;;4991252;28;20257;-75
